Time;durP1;ratioP1;P1;durP2;ratioP2;P2;SDS_P1;SDS_P2;PMS_P1;PMS_P2;Temp;Humidity;BMP_temperature;BMP_pressure;BME280_temperature;BME280_humidity;BME280_pressure;Samples;Min_cycle;Max_cycle;Signal;HPM_P1;HPM_P2
2023/03/14 00:02:01;;;;;;;7.80;3.47;;;11.60;99.90;;;;;;2610163;54;20234;-70
2023/03/14 00:07:49;;;;;;;9.30;4.27;;;11.50;99.90;;;;;;2611967;54;21400;-71
2023/03/14 00:13:37;;;;;;;3.53;3.23;;;11.40;99.90;;;;;;2613108;54;20145;-71
2023/03/14 00:19:25;;;;;;;6.97;4.40;;;11.40;99.90;;;;;;2611582;54;20150;-71
2023/03/14 00:25:12;;;;;;;9.20;3.77;;;11.40;99.90;;;;;;2613151;54;20161;-70
2023/03/14 00:31:08;;;;;;;7.90;3.57;;;11.40;99.90;;;;;;2612062;54;20186;-71
2023/03/14 00:34:19;;;;;;;5.87;3.97;;;11.40;99.90;;;;;;2613417;54;20442;-71
2023/03/14 00:36:45;;;;;;;6.13;4.00;;;11.40;99.90;;;;;;2611753;54;20415;-71
2023/03/14 00:42:33;;;;;;;4.90;3.57;;;11.60;99.90;;;;;;2613222;54;20394;-70
2023/03/14 00:48:20;;;;;;;7.47;3.90;;;11.60;99.90;;;;;;2612695;54;20363;-71
2023/03/14 00:54:07;;;;;;;5.50;4.27;;;11.60;99.90;;;;;;2613500;39;20508;-71
2023/03/14 00:59:56;;;;;;;4.23;1.73;;;10.00;99.90;;;;;;2612167;31;20642;-71
2023/03/14 01:05:43;;;;;;;3.50;1.60;;;9.70;99.90;;;;;;2613960;54;20170;-71
2023/03/14 01:11:33;;;;;;;2.10;1.30;;;9.50;99.90;;;;;;2612354;46;20623;-72
2023/03/14 01:17:22;;;;;;;5.20;1.27;;;9.40;99.90;;;;;;2611062;54;20391;-71
2023/03/14 01:23:10;;;;;;;4.10;1.53;;;9.40;99.90;;;;;;2611257;54;20965;-71
2023/03/14 01:28:58;;;;;;;3.83;1.07;;;9.30;99.90;;;;;;2611286;54;20142;-72
2023/03/14 01:38:51;;;;;;;2.87;1.60;;;9.30;99.90;;;;;;2611794;54;20419;-71
2023/03/14 01:51:05;;;;;;;8.50;1.83;;;9.20;99.90;;;;;;2612366;54;20418;-73
2023/03/14 02:03:16;;;;;;;10.63;1.87;;;9.30;99.90;;;;;;2612643;54;20921;-73
2023/03/14 02:09:04;;;;;;;8.30;2.17;;;9.30;99.90;;;;;;2612655;54;20395;-74
2023/03/14 02:14:51;;;;;;;6.80;2.23;;;9.30;99.90;;;;;;2612611;54;20403;-75
2023/03/14 02:27:16;;;;;;;4.40;1.73;;;9.50;99.90;;;;;;2613189;54;20390;-74
2023/03/14 02:33:07;;;;;;;5.40;2.00;;;9.50;99.90;;;;;;2612925;54;20415;-74
2023/03/14 02:42:17;;;;;;;7.73;1.93;;;9.40;99.90;;;;;;2610887;54;20411;-75
2023/03/14 02:54:41;;;;;;;5.93;1.83;;;9.60;99.90;;;;;;2610841;54;20400;-75
2023/03/14 03:00:30;;;;;;;8.40;4.83;;;9.70;99.90;;;;;;2609658;54;20392;-70
2023/03/14 03:06:17;;;;;;;12.23;2.40;;;9.70;99.90;;;;;;2610225;54;20390;-71
2023/03/14 03:12:05;;;;;;;4.90;2.03;;;9.70;99.90;;;;;;2610990;54;20130;-71
2023/03/14 03:17:51;;;;;;;5.10;2.43;;;9.60;99.90;;;;;;2609554;54;20284;-70
2023/03/14 03:23:39;;;;;;;2.87;2.00;;;9.50;99.90;;;;;;2610436;46;20161;-70
2023/03/14 03:29:26;;;;;;;6.53;2.90;;;9.60;99.90;;;;;;2611599;54;20190;-71
2023/03/14 03:35:14;;;;;;;5.27;2.27;;;9.60;99.90;;;;;;2612478;54;20163;-71
2023/03/14 03:44:29;;;;;;;5.40;1.90;;;9.40;99.90;;;;;;2611459;54;20433;-71
2023/03/14 03:50:17;;;;;;;6.87;2.77;;;9.50;99.90;;;;;;2611769;39;20789;-72
2023/03/14 03:56:05;;;;;;;4.50;2.03;;;9.80;99.90;;;;;;2612160;54;20126;-72
2023/03/14 04:01:53;;;;;;;5.30;2.27;;;9.50;99.90;;;;;;2613120;54;20952;-72
2023/03/14 04:07:40;;;;;;;7.23;2.23;;;9.40;99.90;;;;;;2612688;54;20134;-72
2023/03/14 04:13:29;;;;;;;8.27;2.10;;;9.30;99.90;;;;;;2612431;54;20162;-71
2023/03/14 04:19:16;;;;;;;3.90;2.10;;;9.30;99.90;;;;;;2611633;54;20359;-71
2023/03/14 04:25:05;;;;;;;4.53;1.63;;;9.40;99.90;;;;;;2613072;54;20126;-72
2023/03/14 04:30:53;;;;;;;3.40;1.70;;;9.40;99.90;;;;;;2610787;54;20372;-71
2023/03/14 04:36:41;;;;;;;3.50;1.27;;;9.20;99.90;;;;;;2610848;54;20146;-72
2023/03/14 04:45:50;;;;;;;1.40;0.60;;;8.90;99.90;;;;;;2612754;54;20394;-72
2023/03/14 04:51:38;;;;;;;2.40;0.90;;;8.50;99.90;;;;;;2611766;54;20135;-72
2023/03/14 04:57:26;;;;;;;2.93;0.77;;;8.40;99.90;;;;;;2613547;54;20150;-72
2023/03/14 05:03:18;;;;;;;6.50;1.00;;;8.30;99.90;;;;;;2614032;39;20555;-72
2023/03/14 05:09:06;;;;;;;4.03;1.17;;;8.20;99.90;;;;;;2610659;54;20411;-72
2023/03/14 05:14:54;;;;;;;1.80;0.90;;;8.10;99.90;;;;;;2612412;54;20134;-72
2023/03/14 05:17:57;;;;;;;3.30;0.70;;;8.20;99.90;;;;;;2612030;54;20424;-73
2023/03/14 05:20:23;;;;;;;4.33;1.07;;;8.10;99.90;;;;;;2612279;54;20715;-72
2023/03/14 05:26:10;;;;;;;2.17;0.90;;;8.20;99.90;;;;;;2612703;39;20522;-73
2023/03/14 05:31:58;;;;;;;6.20;0.83;;;8.10;99.90;;;;;;2613210;54;20134;-72
2023/03/14 05:37:46;;;;;;;1.70;0.77;;;8.10;99.90;;;;;;2612843;39;20543;-72
2023/03/14 05:43:33;;;;;;;4.10;1.00;;;8.10;99.90;;;;;;2611986;46;20229;-72
2023/03/14 05:49:21;;;;;;;4.33;1.27;;;8.10;99.90;;;;;;2612273;39;20540;-71
2023/03/14 05:55:09;;;;;;;2.90;1.00;;;8.10;99.90;;;;;;2609717;54;20149;-73
2023/03/14 06:00:57;;;;;;;1.90;1.23;;;8.20;99.90;;;;;;2610752;39;20701;-72
2023/03/14 06:06:45;;;;;;;3.67;1.67;;;8.20;99.90;;;;;;2611528;54;20170;-71
2023/03/14 06:12:32;;;;;;;5.50;2.10;;;8.20;99.90;;;;;;2611743;54;20234;-73
2023/03/14 06:18:20;;;;;;;9.27;3.03;;;8.40;99.90;;;;;;2610020;54;20141;-77
2023/03/14 06:24:08;;;;;;;5.60;3.03;;;8.60;99.90;;;;;;2609198;54;20134;-72
2023/03/14 06:29:56;;;;;;;4.20;2.67;;;8.60;99.90;;;;;;2612013;54;20135;-73
2023/03/14 06:35:44;;;;;;;5.17;2.50;;;8.80;99.90;;;;;;2609070;54;20146;-72
2023/03/14 06:45:50;;;;;;;3.67;2.23;;;8.90;99.90;;;;;;2608270;54;20487;-71
2023/03/14 06:51:37;;;;;;;3.87;2.40;;;9.00;99.90;;;;;;2608110;54;21476;-72
2023/03/14 06:57:25;;;;;;;3.77;1.17;;;9.10;99.90;;;;;;2608995;54;20162;-73
2023/03/14 07:03:14;;;;;;;2.10;1.30;;;9.10;99.90;;;;;;2611715;54;20231;-72
2023/03/14 07:09:03;;;;;;;3.70;1.57;;;9.20;99.90;;;;;;2611670;39;20754;-71
2023/03/14 07:14:51;;;;;;;1.70;0.97;;;9.30;99.90;;;;;;2613357;54;20399;-73
2023/03/14 07:20:39;;;;;;;2.07;1.03;;;9.40;99.90;;;;;;2611905;46;20150;-72
2023/03/14 07:26:26;;;;;;;2.17;0.90;;;9.40;99.90;;;;;;2611091;54;20366;-72
2023/03/14 07:32:14;;;;;;;2.60;0.80;;;9.60;99.90;;;;;;2613637;39;20946;-72
2023/03/14 07:38:02;;;;;;;2.17;1.13;;;9.70;99.90;;;;;;2608550;54;20142;-72
2023/03/14 07:44:00;;;;;;;1.90;0.80;;;9.80;99.90;;;;;;2610252;47;20175;-72
2023/03/14 07:49:47;;;;;;;2.03;1.00;;;9.90;99.90;;;;;;2610776;54;20144;-72
2023/03/14 07:55:34;;;;;;;2.50;1.30;;;9.80;99.90;;;;;;2612032;39;20567;-72
2023/03/14 08:01:22;;;;;;;2.43;0.97;;;9.80;99.90;;;;;;2611230;54;20123;-72
2023/03/14 08:07:09;;;;;;;1.60;1.00;;;9.90;99.90;;;;;;2609130;54;20158;-73
2023/03/14 08:12:57;;;;;;;2.17;1.30;;;9.90;99.90;;;;;;2608189;39;20916;-73
2023/03/14 08:18:45;;;;;;;3.60;2.03;;;9.90;99.90;;;;;;2611434;54;20428;-73
2023/03/14 08:24:33;;;;;;;2.10;1.40;;;10.10;99.90;;;;;;2611370;54;20375;-73
2023/03/14 08:30:21;;;;;;;5.30;2.40;;;10.00;99.90;;;;;;2610517;46;20154;-72
2023/03/14 08:36:10;;;;;;;4.53;1.97;;;9.90;99.90;;;;;;2610964;54;20423;-72
2023/03/14 08:52:16;;;;;;;6.80;2.03;;;11.30;99.90;;;;;;2610116;54;20390;-72
2023/03/14 08:55:20;;;;;;;2.87;1.53;;;11.10;99.90;;;;;;2609023;51;20415;-72
2023/03/14 08:57:46;;;;;;;2.00;1.20;;;10.80;99.90;;;;;;2606034;46;20448;-72
2023/03/14 09:03:33;;;;;;;3.70;2.93;;;10.60;99.90;;;;;;2609305;54;20238;-72
2023/03/14 09:09:20;;;;;;;2.00;0.90;;;10.30;99.90;;;;;;2609170;54;20402;-73
2023/03/14 09:15:08;;;;;;;2.83;1.40;;;10.30;99.90;;;;;;2609837;39;20666;-74
2023/03/14 09:20:56;;;;;;;2.23;1.27;;;10.10;99.90;;;;;;2609046;54;20367;-73
2023/03/14 09:26:43;;;;;;;4.60;2.27;;;10.00;99.90;;;;;;2612352;54;20130;-72
2023/03/14 09:32:31;;;;;;;1.80;1.27;;;10.00;99.90;;;;;;2609587;39;20328;-72
2023/03/14 09:38:20;;;;;;;2.03;0.93;;;8.60;99.90;;;;;;2609360;54;20399;-72
2023/03/14 09:41:17;;;;;;;2.73;0.90;;;8.60;99.90;;;;;;2612310;54;20408;-72
2023/03/14 09:43:45;;;;;;;2.27;0.90;;;8.40;99.90;;;;;;2611995;47;21012;-73
2023/03/14 09:49:39;;;;;;;1.50;0.70;;;8.30;99.90;;;;;;2609679;39;20726;-73
2023/03/14 09:55:27;;;;;;;3.00;0.90;;;8.20;99.90;;;;;;2613313;54;20391;-72
2023/03/14 10:01:20;;;;;;;2.43;1.30;;;8.40;99.90;;;;;;2614139;39;20548;-72
2023/03/14 10:07:14;;;;;;;2.07;0.93;;;8.50;99.90;;;;;;2612280;54;20905;-73
2023/03/14 10:26:15;;;;;;;4.50;1.70;;;8.30;99.90;;;;;;2611942;54;20949;-72
2023/03/14 10:38:30;;;;;;;2.77;2.03;;;8.10;99.90;;;;;;2610995;39;20754;-72
2023/03/14 10:51:27;;;;;;;5.60;2.23;;;7.60;99.90;;;;;;2612641;54;20418;-72
2023/03/14 10:57:15;;;;;;;2.77;1.63;;;7.60;99.90;;;;;;2610064;54;20390;-72
2023/03/14 11:03:12;;;;;;;4.80;1.47;;;7.50;99.90;;;;;;2613327;54;20655;-73
2023/03/14 11:09:15;;;;;;;2.30;1.40;;;7.20;99.90;;;;;;2609279;54;20395;-73
2023/03/14 11:18:50;;;;;;;3.17;1.60;;;7.50;99.90;;;;;;2614735;39;20817;-72
2023/03/14 11:21:19;;;;;;;5.33;2.03;;;7.50;99.90;;;;;;2613879;54;20527;-73
2023/03/14 11:27:17;;;;;;;2.33;1.97;;;7.60;99.90;;;;;;2614527;54;20375;-72
2023/03/14 11:46:41;;;;;;;3.70;2.70;;;7.40;99.90;;;;;;2609772;54;20507;-72
2023/03/14 11:55:42;;;;;;;5.53;3.20;;;7.10;99.90;;;;;;2610898;54;20423;-73
2023/03/14 12:14:34;;;;;;;10.43;2.97;;;6.90;99.90;;;;;;2612691;54;20390;-72
2023/03/14 12:20:24;;;;;;;3.30;2.47;;;7.20;99.90;;;;;;2614123;39;20777;-71
2023/03/14 12:26:11;;;;;;;3.73;2.57;;;8.50;99.90;;;;;;2613500;54;21012;-72
2023/03/14 12:38:37;;;;;;;4.90;3.57;;;9.60;99.90;;;;;;2611882;54;20463;-72
2023/03/14 12:44:30;;;;;;;5.80;4.00;;;8.80;99.90;;;;;;2610081;54;20411;-72
2023/03/14 12:50:25;;;;;;;6.50;3.37;;;8.30;99.90;;;;;;2611819;54;20395;-72
2023/03/14 13:02:44;;;;;;;3.43;2.53;;;7.10;99.90;;;;;;2611291;54;20970;-72
2023/03/14 13:08:41;;;;;;;5.80;2.37;;;6.50;99.90;;;;;;2611270;54;20349;-73
2023/03/14 13:14:31;;;;;;;5.40;2.20;;;6.60;99.90;;;;;;2611933;54;20510;-73
2023/03/14 13:26:49;;;;;;;9.10;4.70;;;7.90;99.90;;;;;;2611000;54;20984;-73
2023/03/14 13:32:43;;;;;;;19.00;4.40;;;7.20;99.90;;;;;;2611171;54;20371;-72
2023/03/14 13:38:33;;;;;;;15.83;3.20;;;7.10;99.90;;;;;;2609480;54;20400;-72
2023/03/14 13:44:32;;;;;;;13.83;3.90;;;7.00;99.90;;;;;;2611859;54;20871;-71
2023/03/14 13:50:19;;;;;;;11.30;3.60;;;7.60;99.90;;;;;;2610408;54;20367;-72
2023/03/14 13:56:09;;;;;;;12.83;4.53;;;9.00;99.90;;;;;;2610386;39;21016;-72
2023/03/14 14:02:00;;;;;;;12.40;4.20;;;12.00;99.90;;;;;;2611447;54;20516;-72
2023/03/14 14:07:49;;;;;;;12.33;4.17;;;13.70;97.30;;;;;;2610792;54;20550;-72
2023/03/14 14:13:37;;;;;;;11.80;5.10;;;13.00;85.00;;;;;;2612039;54;20499;-73
2023/03/14 14:19:28;;;;;;;11.27;5.83;;;10.70;81.40;;;;;;2611974;54;20251;-72
2023/03/14 14:25:17;;;;;;;11.30;5.60;;;9.50;91.40;;;;;;2610832;54;20431;-71
2023/03/14 14:43:47;;;;;;;8.97;7.13;;;12.30;32.10;;;;;;2610607;54;20419;-72
2023/03/14 14:49:35;;;;;;;8.23;7.53;;;12.40;24.30;;;;;;2611222;54;20466;-71
2023/03/14 14:52:52;;;;;;;10.53;7.70;;;10.20;23.50;;;;;;2613786;39;20814;-72
2023/03/14 14:58:43;;;;;;;9.30;8.50;;;12.40;16.40;;;;;;2605707;54;20459;-71
2023/03/14 15:04:31;;;;;;;11.53;7.67;;;13.00;14.00;;;;;;2611773;54;20415;-71
2023/03/14 15:10:22;;;;;;;7.63;7.03;;;10.40;13.60;;;;;;2612049;54;20363;-71
2023/03/14 15:16:16;;;;;;;7.90;7.20;;;9.60;17.20;;;;;;2608699;39;21016;-71
2023/03/14 15:22:09;;;;;;;10.73;7.63;;;9.00;17.20;;;;;;2611434;54;20391;-72
2023/03/14 15:27:56;;;;;;;8.00;7.40;;;9.00;16.90;;;;;;2610804;54;20403;-72
2023/03/14 15:33:45;;;;;;;7.60;6.90;;;9.00;13.70;;;;;;2611382;54;20665;-72
2023/03/14 15:39:34;;;;;;;9.63;8.23;;;8.60;12.70;;;;;;2611272;54;20865;-71
2023/03/14 15:45:22;;;;;;;8.47;7.80;;;8.20;10.40;;;;;;2612345;54;20370;-72
2023/03/14 15:48:21;;;;;;;8.73;7.60;;;7.90;10.80;;;;;;2611700;54;21001;-72
2023/03/14 15:50:46;;;;;;;11.00;10.00;;;7.90;9.80;;;;;;2612579;54;20150;-72
2023/03/14 15:56:34;;;;;;;8.87;8.30;;;7.80;10.40;;;;;;2612702;54;20130;-71
2023/03/14 16:02:22;;;;;;;20.47;8.50;;;7.50;6.70;;;;;;2612450;54;20770;-72
2023/03/14 16:08:09;;;;;;;8.80;8.10;;;7.60;6.30;;;;;;2613873;54;20134;-73
2023/03/14 16:13:57;;;;;;;9.07;8.33;;;7.40;6.50;;;;;;2610847;54;20131;-72
2023/03/14 16:19:45;;;;;;;8.63;7.97;;;7.50;7.20;;;;;;2612118;54;20122;-72
2023/03/14 16:25:32;;;;;;;9.03;8.43;;;8.00;5.50;;;;;;2611417;54;20150;-72
2023/03/14 16:31:22;;;;;;;8.30;7.70;;;7.20;7.40;;;;;;2613398;54;20154;-71
2023/03/14 16:37:10;;;;;;;9.67;8.87;;;7.00;7.70;;;;;;2612312;54;20363;-72
2023/03/14 16:42:57;;;;;;;8.20;7.60;;;6.90;6.50;;;;;;2612607;54;20138;-72
2023/03/14 16:52:54;;;;;;;9.43;7.73;;;6.80;6.10;;;;;;2611710;54;20487;-72
2023/03/14 16:58:43;;;;;;;7.37;6.97;;;6.60;5.70;;;;;;2612590;54;21045;-72
2023/03/14 17:04:31;;;;;;;9.40;8.50;;;6.60;6.00;;;;;;2612548;54;20402;-73
2023/03/14 17:10:18;;;;;;;8.03;7.50;;;6.40;5.90;;;;;;2610667;46;20166;-73
2023/03/14 17:16:07;;;;;;;9.17;8.60;;;6.30;7.30;;;;;;2612662;54;20135;-72
2023/03/14 17:19:10;;;;;;;8.80;8.00;;;6.40;7.30;;;;;;2609536;54;20432;-73
2023/03/14 17:21:36;;;;;;;10.20;8.40;;;6.30;7.60;;;;;;2612280;54;20445;-72
2023/03/14 17:27:23;;;;;;;9.33;8.47;;;6.20;8.40;;;;;;2611278;46;20157;-72
2023/03/14 17:33:12;;;;;;;13.60;9.00;;;6.10;9.00;;;;;;2609377;54;20162;-72
2023/03/14 17:38:59;;;;;;;13.37;10.83;;;6.10;7.20;;;;;;2610220;54;20402;-72
2023/03/14 17:44:49;;;;;;;9.70;8.90;;;5.90;10.10;;;;;;2607709;54;20162;-72
2023/03/14 17:50:36;;;;;;;7.83;7.33;;;5.80;11.10;;;;;;2609748;54;20447;-73
2023/03/14 17:56:24;;;;;;;9.90;8.90;;;5.70;12.00;;;;;;2609423;54;20170;-72
2023/03/14 18:02:12;;;;;;;8.77;7.87;;;5.50;14.70;;;;;;2610256;39;20820;-72
2023/03/14 18:08:00;;;;;;;10.00;8.40;;;5.60;15.40;;;;;;2610464;54;20114;-73
2023/03/14 18:13:48;;;;;;;11.00;9.87;;;5.50;17.00;;;;;;2611337;54;20206;-72
2023/03/14 18:19:36;;;;;;;9.97;9.00;;;5.40;17.90;;;;;;2609912;39;20544;-72
2023/03/14 18:25:24;;;;;;;8.83;8.33;;;5.30;21.00;;;;;;2610362;54;20217;-72
2023/03/14 18:31:14;;;;;;;8.07;7.27;;;5.40;20.90;;;;;;2610051;54;30116;-73
2023/03/14 18:37:02;;;;;;;7.63;7.10;;;5.40;21.00;;;;;;2611018;54;20386;-72
2023/03/14 18:42:50;;;;;;;8.73;8.20;;;5.40;18.60;;;;;;2612720;54;20388;-73
2023/03/14 18:52:53;;;;;;;9.63;8.03;;;5.50;17.20;;;;;;2610925;54;20483;-72
2023/03/14 18:58:41;;;;;;;8.53;7.80;;;5.30;19.20;;;;;;2607540;54;21137;-72
2023/03/14 19:04:29;;;;;;;12.20;8.10;;;5.20;21.80;;;;;;2607393;54;20134;-72
2023/03/14 19:10:16;;;;;;;8.20;7.60;;;5.30;22.70;;;;;;2608825;54;20467;-73
2023/03/14 19:16:05;;;;;;;7.70;7.10;;;5.30;23.60;;;;;;2612507;54;20230;-72
2023/03/14 19:21:53;;;;;;;12.87;9.57;;;5.00;28.80;;;;;;2611417;54;20379;-73
2023/03/14 19:27:40;;;;;;;11.13;9.60;;;5.00;34.60;;;;;;2607105;54;20126;-73
2023/03/14 19:33:29;;;;;;;10.10;9.20;;;4.90;39.60;;;;;;2609306;54;21469;-72
2023/03/14 19:39:17;;;;;;;13.00;8.97;;;5.00;40.90;;;;;;2611210;54;20414;-75
2023/03/14 19:45:06;;;;;;;10.53;8.53;;;5.10;36.80;;;;;;2612127;54;20757;-75
2023/03/14 19:48:28;;;;;;;9.00;8.20;;;5.10;35.30;;;;;;2610591;39;20792;-76
2023/03/14 19:50:54;;;;;;;9.13;8.33;;;5.10;35.80;;;;;;2609445;54;20991;-75
2023/03/14 19:56:41;;;;;;;12.70;9.30;;;5.00;36.10;;;;;;2610498;54;20130;-76
2023/03/14 20:02:28;;;;;;;12.33;9.67;;;4.80;40.20;;;;;;2607818;54;20134;-76
2023/03/14 20:08:16;;;;;;;10.50;9.07;;;4.90;39.10;;;;;;2605400;54;20162;-76
2023/03/14 20:14:03;;;;;;;14.40;8.60;;;4.80;44.10;;;;;;2607247;39;20610;-75
2023/03/14 20:19:50;;;;;;;9.67;8.67;;;4.60;52.30;;;;;;2604729;54;20125;-74
2023/03/14 20:25:38;;;;;;;8.93;8.27;;;4.70;55.40;;;;;;2607762;46;20166;-75
2023/03/14 20:31:26;;;;;;;14.67;8.80;;;4.60;63.30;;;;;;2609021;39;20619;-75
2023/03/14 20:37:14;;;;;;;9.57;8.57;;;4.40;69.30;;;;;;2609341;54;20127;-74
2023/03/14 20:43:01;;;;;;;9.70;8.20;;;4.40;72.60;;;;;;2608143;54;20140;-75
2023/03/14 20:52:55;;;;;;;8.93;8.00;;;4.40;68.70;;;;;;2608370;54;20366;-74
2023/03/14 20:58:44;;;;;;;8.03;7.47;;;4.10;72.10;;;;;;2606626;39;20777;-75
2023/03/14 21:04:32;;;;;;;11.03;7.17;;;4.00;78.70;;;;;;2609310;54;20397;-75
2023/03/14 21:10:20;;;;;;;16.37;9.33;;;4.10;80.70;;;;;;2612319;54;20230;-74
2023/03/14 21:16:07;;;;;;;10.17;9.17;;;4.00;84.60;;;;;;2611404;54;20139;-76
2023/03/14 21:22:00;;;;;;;7.63;6.90;;;4.00;87.50;;;;;;2611901;54;20134;-75
2023/03/14 21:27:48;;;;;;;9.17;6.93;;;3.80;89.10;;;;;;2609220;54;20403;-75
2023/03/14 21:33:37;;;;;;;9.47;8.57;;;3.80;88.60;;;;;;2612684;54;21029;-75
2023/03/14 21:39:24;;;;;;;9.90;7.70;;;3.50;91.30;;;;;;2610412;54;20423;-75
2023/03/14 21:45:12;;;;;;;10.00;8.00;;;3.40;91.60;;;;;;2613370;54;20150;-75
2023/03/14 21:48:23;;;;;;;8.10;7.40;;;3.30;92.50;;;;;;2612047;51;20395;-75
2023/03/14 21:50:49;;;;;;;12.27;7.77;;;3.30;92.40;;;;;;2611971;54;20852;-74
2023/03/14 21:56:37;;;;;;;8.90;8.10;;;3.50;92.10;;;;;;2611750;54;20270;-74
2023/03/14 22:02:25;;;;;;;11.73;7.60;;;3.30;94.20;;;;;;2613605;39;20720;-74
2023/03/14 22:08:14;;;;;;;8.50;7.27;;;3.20;96.50;;;;;;2612764;54;20137;-74
2023/03/14 22:14:01;;;;;;;15.27;7.43;;;3.40;94.80;;;;;;2613451;54;20458;-74
2023/03/14 22:19:50;;;;;;;10.00;7.40;;;3.10;98.60;;;;;;2612736;54;20752;-74
2023/03/14 22:25:40;;;;;;;8.30;7.10;;;3.10;98.90;;;;;;2612695;54;20378;-75
2023/03/14 22:31:27;;;;;;;10.03;7.13;;;3.20;99.20;;;;;;2611437;54;20386;-75
2023/03/14 22:37:15;;;;;;;12.20;7.27;;;3.30;97.20;;;;;;2613366;54;20229;-74
2023/03/14 22:43:02;;;;;;;11.73;6.77;;;3.30;97.60;;;;;;2612891;39;20525;-74
2023/03/14 22:52:57;;;;;;;8.73;7.77;;;3.60;95.30;;;;;;2612346;54;20411;-74
2023/03/14 22:58:45;;;;;;;7.80;7.10;;;3.70;94.40;;;;;;2612619;54;20391;-74
2023/03/14 23:04:33;;;;;;;8.77;7.63;;;3.80;91.80;;;;;;2612723;54;20155;-74
2023/03/14 23:10:21;;;;;;;8.63;7.90;;;4.00;88.20;;;;;;2611943;54;20153;-74
2023/03/14 23:16:10;;;;;;;7.70;6.90;;;4.20;78.50;;;;;;2611972;54;20692;-74
2023/03/14 23:21:58;;;;;;;8.23;7.40;;;4.10;77.10;;;;;;2612517;54;20398;-74
2023/03/14 23:27:46;;;;;;;9.20;7.83;;;4.30;75.70;;;;;;2611433;54;20150;-75
2023/03/14 23:33:36;;;;;;;9.40;8.50;;;4.20;77.20;;;;;;2612323;54;20154;-74
2023/03/14 23:39:24;;;;;;;11.23;6.50;;;4.10;81.20;;;;;;2613065;54;20406;-74
2023/03/14 23:45:12;;;;;;;9.23;5.90;;;4.20;83.40;;;;;;2611672;54;20149;-74
2023/03/14 23:48:25;;;;;;;6.77;6.07;;;4.10;92.20;;;;;;2610265;47;20414;-74
2023/03/14 23:50:58;;;;;;;9.03;7.33;;;4.00;97.90;;;;;;2611277;54;20446;-75
2023/03/14 23:56:46;;;;;;;7.60;6.07;;;3.90;99.90;;;;;;2613812;39;20773;-75
